Eagle — WBP2187 — position and weather

sailwx.info

Track history (hours):
 
Tides and Currents Weather Stations Pressure Air Temp Water Temp Dewpoint Dewpoint Depression Visibility Wind Speed Wind Dir Waves Ship Positions

Eagle

Owner: Harley Marine Services, INC, SEATTLE, WA. More information available from US FCC via Universal Licensing System and Coast Guard Vessel Documentation Center.

Last reported at 2017-Jul-23 08:30 UTC. Time now 2017-Jul-23 08:38 UTC.
Position N 44°35' W 125°12'.

Length 32 m; draft 4.2 m.

Type: Towing. MMSI: 366978690.

Date/timePositionNaut miles runAvg speedWind from/ knotsBaromVisibWave heightAir tempDewpointWater temp
2017-Jul-23 08:30N 44°35' W 125°12'3 5.5
2017-Jul-23 08:00N 44°33' W 125°12'3 5.5
2017-Jul-23 07:30N 44°30' W 125°12'3 5.5
2017-Jul-23 07:00N 44°27' W 125°12'3 5.8
2017-Jul-23 06:30N 44°24' W 125°12'4 5.8
2017-Jul-23 05:51N 44°20' W 125°12'6 6.2
2017-Jul-23 04:52N 44°14' W 125°11'  
2017-Jul-20 19:28N 38°30' W 123°59'3 5.8
2017-Jul-20 19:00N 38°28' W 123°57'3 5.7
2017-Jul-20 18:30N 38°26' W 123°56'3 5.4
2017-Jul-20 18:00N 38°23' W 123°54'3 5.6
2017-Jul-20 17:30N 38°21' W 123°52'3 5.6
2017-Jul-20 17:00N 38°18' W 123°51'3 5.4
2017-Jul-20 16:30N 38°16' W 123°49'6 5.0
2017-Jul-20 15:21N 38°11' W 123°46'3 5.0
2017-Jul-20 14:50N 38°09' W 123°44'4 4.7
2017-Jul-20 14:00N 38°05' W 123°42'2 4.3
2017-Jul-20 13:30N 38°03' W 123°41'2 4.4
2017-Jul-20 13:00N 38°01' W 123°39'2 4.5
2017-Jul-20 12:30N 37°59' W 123°38'3 4.5
2017-Jul-20 11:53N 37°57' W 123°36'2 4.7
2017-Jul-20 11:25N 37°55' W 123°35'3 4.9
2017-Jul-20 10:48N 37°52' W 123°33'22 4.8
2017-Jul-20 06:05N 37°36' W 123°14'2 5.0
2017-Jul-20 05:45N 37°35' W 123°12'1 5.2
2017-Jul-20 05:29N 37°35' W 123°10'2 5.0
2017-Jul-20 05:00N 37°35' W 123°07'3 5.2
2017-Jul-20 04:30N 37°34' W 123°04'3 6.4
2017-Jul-20 04:00N 37°36' W 123°00'3 6.9
2017-Jul-20 03:30N 37°38' W 122°57'3 6.8
2017-Jul-20 03:00N 37°40' W 122°53'3 6.3
2017-Jul-20 02:30N 37°42' W 122°50'3 5.9
2017-Jul-20 02:00N 37°43' W 122°47'3 5.0
2017-Jul-20 01:22N 37°44' W 122°43'2 6.5
2017-Jul-20 01:00N 37°45' W 122°40'3 5.4
2017-Jul-20 00:30N 37°46' W 122°37'3 5.5
2017-Jul-20 00:00N 37°47' W 122°34'3 6.4
2017-Jul-19 23:30N 37°49' W 122°30'3 6.7
2017-Jul-19 23:00N 37°50' W 122°26'4 7.0
2017-Jul-19 22:31N 37°48' W 122°23'2 3.2
2017-Jul-19 22:00N 37°48' W 122°21'2 3.9
2017-Jul-19 21:30N 37°48' W 122°18'1 2.2
2017-Jul-19 21:00N 37°48' W 122°17'0 0.0
2017-Jul-19 20:28N 37°48' W 122°17'0 0.1
2017-Jul-19 19:58N 37°48' W 122°17'0 0.0
2017-Jul-19 19:28N 37°48' W 122°17'0 0.0
2017-Jul-19 18:59N 37°48' W 122°17'0 0.0
2017-Jul-19 18:28N 37°48' W 122°17'0 0.0
2017-Jul-19 17:58N 37°48' W 122°17'0 0.0
2017-Jul-19 17:28N 37°48' W 122°17'0 0.0
2017-Jul-19 16:58N 37°48' W 122°17'0 0.0
2017-Jul-19 16:28N 37°48' W 122°17'0 0.0
2017-Jul-19 15:58N 37°48' W 122°17'0 0.0
2017-Jul-19 15:28N 37°48' W 122°17'0 0.0
2017-Jul-19 14:58N 37°48' W 122°17'0 0.1
2017-Jul-19 14:28N 37°48' W 122°17'0 0.1
2017-Jul-19 13:58N 37°48' W 122°17'0 0.0
2017-Jul-19 13:28N 37°48' W 122°17'0 0.0
2017-Jul-19 12:58N 37°48' W 122°17'0 0.0
2017-Jul-19 12:28N 37°48' W 122°17'0 0.0
2017-Jul-19 11:58N 37°48' W 122°17'0 0.0
2017-Jul-19 11:28N 37°48' W 122°17'0 0.2
2017-Jul-19 10:58N 37°48' W 122°17'0 0.2
2017-Jul-19 10:28N 37°48' W 122°17'0 0.0
2017-Jul-19 09:58N 37°48' W 122°17'0 0.0
2017-Jul-19 09:28N 37°48' W 122°17'0 0.0
2017-Jul-19 08:58N 37°48' W 122°17'0 0.0
2017-Jul-19 08:28N 37°48' W 122°17'0 0.0
2017-Jul-19 07:58N 37°48' W 122°17'0 0.0
2017-Jul-19 07:28N 37°48' W 122°17'0 0.0
2017-Jul-19 06:58N 37°48' W 122°17'0 0.0
2017-Jul-19 06:28N 37°48' W 122°17'0 0.0
2017-Jul-19 05:58N 37°48' W 122°17'0 0.0
2017-Jul-19 05:25N 37°48' W 122°17'0 0.0
2017-Jul-19 04:58N 37°48' W 122°17'0 0.0
2017-Jul-19 04:28N 37°48' W 122°17'0 0.0
2017-Jul-19 03:58N 37°48' W 122°17'0 0.0
2017-Jul-19 03:25N 37°48' W 122°17'0 0.0
2017-Jul-19 02:58N 37°48' W 122°17'0 0.0
2017-Jul-19 02:30N 37°48' W 122°17'0 0.0
2017-Jul-19 02:00N 37°48' W 122°17'0 0.0
2017-Jul-19 01:30N 37°48' W 122°17'0 0.0
2017-Jul-19 01:01N 37°48' W 122°17'0 0.0
2017-Jul-19 00:31N 37°48' W 122°17'0 0.0
2017-Jul-19 00:00N 37°48' W 122°17'0 0.3
2017-Jul-18 23:30N 37°48' W 122°17'5 9.2
2017-Jul-18 23:00N 37°50' W 122°22'5 9.1
2017-Jul-18 22:31N 37°54' W 122°24'2 3.3
2017-Jul-18 22:01N 37°55' W 122°22'0 0.0
2017-Jul-18 21:30N 37°55' W 122°22'0 0.0
2017-Jul-18 21:00N 37°55' W 122°22'0 0.0
2017-Jul-18 20:30N 37°55' W 122°22'0 0.0
2017-Jul-18 20:01N 37°55' W 122°22'0 0.0
2017-Jul-18 19:30N 37°55' W 122°22'0 0.0
2017-Jul-18 19:01N 37°55' W 122°22'0 0.0
2017-Jul-18 18:30N 37°55' W 122°22'0 0.0
2017-Jul-18 18:00N 37°55' W 122°22'0 0.0
2017-Jul-18 17:30N 37°55' W 122°22'1 1.8
2017-Jul-18 17:01N 37°54' W 122°23'3 6.8
2017-Jul-18 16:31N 37°51' W 122°23'5 9.0
2017-Jul-18 16:01N 37°48' W 122°19'1 2.8
2017-Jul-18 15:31N 37°48' W 122°17'0 0.0
2017-Jul-18 15:01N 37°48' W 122°17'0 0.0
2017-Jul-18 14:00N 37°48' W 122°17'0 0.0
2017-Jul-18 13:31N 37°48' W 122°17'0 0.0
2017-Jul-18 13:01N 37°48' W 122°17'0 0.0
2017-Jul-18 12:30N 37°48' W 122°17'0 0.0
2017-Jul-18 12:01N 37°48' W 122°17'0 0.0
2017-Jul-18 11:30N 37°48' W 122°17'0 0.0
2017-Jul-18 11:01N 37°48' W 122°17'0 0.0
2017-Jul-18 10:30N 37°48' W 122°17'0 0.0
2017-Jul-18 10:00N 37°48' W 122°17'0 0.0
2017-Jul-18 09:30N 37°48' W 122°17'0 0.0
2017-Jul-18 09:01N 37°48' W 122°17'0 0.0
2017-Jul-18 08:31N 37°48' W 122°17'0 0.0
2017-Jul-18 08:00N 37°48' W 122°17'0 0.0
2017-Jul-18 07:30N 37°48' W 122°17'0 0.0
2017-Jul-18 07:00N 37°48' W 122°17'0 0.0
2017-Jul-18 06:31N 37°48' W 122°17'0 0.0
2017-Jul-18 06:01N 37°48' W 122°17'0 0.0
2017-Jul-18 05:30N 37°48' W 122°17'0 0.0
2017-Jul-18 05:00N 37°48' W 122°17'0 0.0
2017-Jul-18 04:31N 37°48' W 122°17'0 0.1
2017-Jul-18 04:01N 37°48' W 122°17'0 0.1
2017-Jul-18 03:30N 37°48' W 122°17'0 0.0
2017-Jul-18 03:01N 37°48' W 122°17'0 0.0
2017-Jul-18 02:31N 37°48' W 122°17'0 0.0
2017-Jul-18 02:00N 37°48' W 122°17'0 0.0
2017-Jul-18 01:30N 37°48' W 122°17'0 0.0
2017-Jul-18 01:00N 37°48' W 122°17'0 0.0
2017-Jul-18 00:30N 37°48' W 122°17'0 0.0
2017-Jul-18 00:01N 37°48' W 122°17'0 0.0
2017-Jul-17 23:31N 37°48' W 122°17'0 0.0
2017-Jul-17 23:01N 37°48' W 122°17'0 0.4
2017-Jul-17 22:30N 37°48' W 122°17'0 0.4
2017-Jul-17 22:01N 37°48' W 122°17'0 0.1
2017-Jul-17 21:31N 37°48' W 122°17'0 0.0
2017-Jul-17 21:00N 37°48' W 122°17'0 0.0
2017-Jul-17 20:30N 37°48' W 122°17'0 0.0
2017-Jul-17 20:00N 37°48' W 122°17'0 0.0
2017-Jul-17 19:30N 37°48' W 122°17'0 0.0
2017-Jul-17 19:00N 37°48' W 122°17'0 0.0
2017-Jul-17 18:31N 37°48' W 122°17'0 0.0
2017-Jul-17 18:00N 37°48' W 122°17'0 0.0
2017-Jul-17 17:31N 37°48' W 122°17'0 0.0
2017-Jul-17 17:01N 37°48' W 122°17'0 0.0
2017-Jul-17 16:30N 37°48' W 122°17'0 0.0
2017-Jul-17 16:01N 37°48' W 122°17'0 0.0
2017-Jul-17 15:31N 37°48' W 122°17'0 0.0
2017-Jul-17 15:01N 37°48' W 122°17'0 0.1
2017-Jul-17 14:30N 37°48' W 122°17'0 0.0
2017-Jul-17 14:00N 37°48' W 122°17'0 0.0
2017-Jul-17 13:30N 37°48' W 122°17'0 0.0
2017-Jul-17 13:01N 37°48' W 122°17'0 0.0
2017-Jul-17 12:30N 37°48' W 122°17'0 0.0
2017-Jul-17 12:01N 37°48' W 122°17'0 0.0
2017-Jul-17 11:31N 37°48' W 122°17'0 0.0
2017-Jul-17 11:00N 37°48' W 122°17'0 0.0
2017-Jul-17 10:30N 37°48' W 122°17'0 0.0
2017-Jul-17 10:00N 37°48' W 122°17'0 0.0
2017-Jul-17 09:31N 37°48' W 122°17'0 0.0
2017-Jul-17 09:00N 37°48' W 122°17'0 0.0
2017-Jul-17 08:30N 37°48' W 122°17'0 0.0
2017-Jul-17 08:01N 37°48' W 122°17'0 0.0
2017-Jul-17 07:30N 37°48' W 122°17'0 0.0
2017-Jul-17 07:01N 37°48' W 122°17'0 0.0
2017-Jul-17 06:30N 37°48' W 122°17'0 0.0
2017-Jul-17 06:01N 37°48' W 122°17'0 0.0
2017-Jul-17 05:30N 37°48' W 122°17'0 0.2
2017-Jul-17 05:01N 37°48' W 122°17'3 5.4
2017-Jul-17 04:31N 37°48' W 122°21'1 2.3
2017-Jul-17 04:00N 37°47' W 122°22'2 4.3
2017-Jul-17 03:30N 37°49' W 122°24'3 6.7
2017-Jul-17 03:01N 37°49' W 122°28'4 7.5
2017-Jul-17 02:31N 37°48' W 122°32'4 7.7
2017-Jul-17 02:00N 37°46' W 122°36'4 8.0
2017-Jul-17 01:30N 37°44' W 122°41'4 7.7
2017-Jul-17 01:00N 37°42' W 122°45'4 7.6
2017-Jul-17 00:30N 37°39' W 122°49'3 5.7
2017-Jul-17 00:01N 37°38' W 122°52'4 7.3
2017-Jul-16 23:30N 37°36' W 122°55'4 7.3
2017-Jul-16 23:01N 37°34' W 122°59'3 6.4
2017-Jul-16 22:30N 37°31' W 123°02'3 5.1
2017-Jul-16 22:00N 37°29' W 123°02'2 4.9
2017-Jul-16 21:31N 37°26' W 123°03'3 5.0
2017-Jul-16 21:01N 37°24' W 123°03'3 5.1
2017-Jul-16 20:31N 37°21' W 123°01'3 5.4
2017-Jul-16 20:00N 37°19' W 123°00'3 5.1
2017-Jul-16 19:30N 37°17' W 122°59'3 5.3
2017-Jul-16 19:00N 37°14' W 122°57'3 5.6
2017-Jul-16 18:30N 37°12' W 122°56'3 5.7
2017-Jul-16 18:00N 37°09' W 122°55'3 5.7
2017-Jul-16 17:30N 37°06' W 122°53'3 5.8
2017-Jul-16 17:00N 37°04' W 122°52'3 5.8
2017-Jul-16 16:30N 37°01' W 122°50'3 5.8
2017-Jul-16 16:00N 36°59' W 122°48'3 5.9
2017-Jul-16 15:30N 36°56' W 122°47'3 5.7
2017-Jul-16 15:00N 36°53' W 122°45'3 5.6
2017-Jul-16 14:30N 36°51' W 122°44'3 5.3
2017-Jul-16 14:00N 36°49' W 122°42'3 5.3
2017-Jul-16 13:30N 36°46' W 122°41'3 5.4
2017-Jul-16 13:00N 36°44' W 122°40'3 5.4
2017-Jul-16 12:30N 36°41' W 122°39'3 5.5
2017-Jul-16 12:00N 36°39' W 122°37'3 5.2
2017-Jul-16 11:30N 36°36' W 122°36'3 5.8
2017-Jul-16 10:59N 36°33' W 122°34'3 6.1
2017-Jul-16 10:30N 36°31' W 122°33'3 5.9
2017-Jul-16 10:00N 36°28' W 122°31'3 6.2
2017-Jul-16 09:30N 36°25' W 122°29'3 5.5
2017-Jul-16 09:00N 36°23' W 122°28'3 6.2
2017-Jul-16 08:30N 36°20' W 122°26'3 6.1
2017-Jul-16 08:00N 36°18' W 122°24'3 6.0
2017-Jul-16 07:30N 36°15' W 122°22'3 5.9
2017-Jul-16 07:00N 36°12' W 122°20'3 5.6
2017-Jul-16 06:30N 36°10' W 122°19'3 5.4
2017-Jul-16 06:00N 36°08' W 122°17'3 5.3
2017-Jul-16 05:30N 36°06' W 122°14'3 5.3
2017-Jul-16 05:00N 36°04' W 122°12'3 5.3
2017-Jul-16 04:30N 36°02' W 122°10'3 5.6
2017-Jul-16 04:00N 35°59' W 122°09'3 5.5
2017-Jul-16 03:30N 35°57' W 122°07'3 5.2
2017-Jul-16 03:00N 35°55' W 122°05'3 5.2
2017-Jul-16 02:29N 35°52' W 122°03'3 5.3
2017-Jul-16 02:00N 35°50' W 122°01'3 5.2
2017-Jul-16 01:30N 35°48' W 121°60'3 5.1
2017-Jul-16 01:00N 35°46' W 121°58'2 4.8
2017-Jul-16 00:30N 35°44' W 121°56'2 4.6
2017-Jul-16 00:00N 35°42' W 121°55'2 4.4
2017-Jul-15 23:30N 35°40' W 121°54'2 4.2
2017-Jul-15 23:00N 35°38' W 121°52'2 4.8
2017-Jul-15 22:30N 35°36' W 121°51'3 5.3
2017-Jul-15 22:00N 35°34' W 121°49'3 5.8
2017-Jul-15 21:30N 35°32' W 121°46'3 5.8
2017-Jul-15 21:01N 35°30' W 121°44'3 6.1
2017-Jul-15 20:31N 35°27' W 121°42'3 6.1
2017-Jul-15 20:00N 35°25' W 121°40'3 6.1
2017-Jul-15 19:31N 35°22' W 121°37'3 5.9
2017-Jul-15 19:00N 35°20' W 121°35'3 6.0
2017-Jul-15 18:30N 35°17' W 121°33'3 6.0
2017-Jul-15 18:01N 35°15' W 121°31'3 6.2
2017-Jul-15 17:30N 35°12' W 121°29'4 6.4
2017-Jul-15 16:57N 35°09' W 121°27'3 6.2
2017-Jul-15 16:31N 35°07' W 121°25'3 6.1
2017-Jul-15 16:00N 35°05' W 121°23'3 6.0
2017-Jul-15 15:31N 35°02' W 121°21'3 6.0
2017-Jul-15 15:00N 34°60' W 121°18'6 6.0
2017-Jul-15 14:00N 34°55' W 121°14'3 6.2
2017-Jul-15 13:30N 34°52' W 121°12'3 6.0
2017-Jul-15 13:01N 34°50' W 121°10'3 6.4
2017-Jul-15 12:30N 34°48' W 121°07'3 6.5
2017-Jul-15 12:00N 34°45' W 121°05'3 6.5
2017-Jul-15 11:31N 34°42' W 121°03'3 6.6
2017-Jul-15 11:00N 34°39' W 121°01'3 6.9
2017-Jul-15 10:31N 34°36' W 120°59'4 7.2
2017-Jul-15 10:01N 34°33' W 120°57'4 7.2
2017-Jul-15 09:26N 34°30' W 120°54'3 7.2
2017-Jul-15 09:00N 34°27' W 120°52'3 6.5
2017-Jul-15 08:30N 34°25' W 120°48'4 6.7
2017-Jul-15 07:56N 34°25' W 120°44'3 6.3
2017-Jul-15 07:29N 34°24' W 120°41'3 5.6
2017-Jul-15 06:58N 34°23' W 120°37'2 5.4
2017-Jul-15 06:31N 34°23' W 120°34'3 5.5
2017-Jul-15 06:01N 34°22' W 120°31'3 5.7
2017-Jul-15 05:30N 34°21' W 120°28'3 6.0
2017-Jul-15 05:00N 34°20' W 120°24'3 5.7
2017-Jul-15 04:30N 34°20' W 120°21'3 5.4
2017-Jul-15 04:00N 34°19' W 120°18'3 5.5
2017-Jul-15 03:31N 34°18' W 120°15'3 5.6
2017-Jul-15 03:00N 34°17' W 120°12'3 5.8
2017-Jul-15 02:30N 34°17' W 120°08'3 6.1
2017-Jul-15 02:00N 34°16' W 120°05'3 6.0
2017-Jul-15 01:29N 34°15' W 120°01'3 6.4
2017-Jul-15 01:01N 34°14' W 119°57'3 6.6
2017-Jul-15 00:31N 34°13' W 119°54'3 6.9
2017-Jul-15 00:00N 34°12' W 119°50'4 7.1
2017-Jul-14 23:29N 34°11' W 119°45'3 7.2
2017-Jul-14 23:01N 34°10' W 119°41'4 7.1
2017-Jul-14 22:31N 34°09' W 119°37'4 7.4
2017-Jul-14 21:59N 34°08' W 119°33'4 7.5
2017-Jul-14 21:30N 34°08' W 119°28'4 7.7
2017-Jul-14 21:01N 34°07' W 119°24'4 7.8
2017-Jul-14 20:31N 34°05' W 119°19'4 8.0
2017-Jul-14 20:01N 34°04' W 119°15'4 7.9
2017-Jul-14 19:31N 34°02' W 119°11'4 7.9
2017-Jul-14 19:01N 34°00' W 119°06'4 7.8
2017-Jul-14 18:30N 33°59' W 119°02'4 7.8
2017-Jul-14 18:00N 33°57' W 118°58'4 8.0
2017-Jul-14 17:30N 33°55' W 118°54'4 8.2
2017-Jul-14 17:01N 33°53' W 118°50'4 8.3
2017-Jul-14 16:31N 33°51' W 118°45'4 8.4
2017-Jul-14 16:00N 33°48' W 118°41'4 8.2
2017-Jul-14 15:31N 33°46' W 118°37'4 8.2
2017-Jul-14 15:00N 33°44' W 118°33'4 8.1
2017-Jul-14 14:30N 33°42' W 118°28'4 7.2
2017-Jul-14 14:00N 33°40' W 118°25'4 7.9
2017-Jul-14 13:30N 33°39' W 118°20'4 7.5
2017-Jul-14 13:00N 33°39' W 118°16'3 6.4
2017-Jul-14 12:30N 33°42' W 118°15'1 2.8
2017-Jul-14 11:59N 33°44' W 118°16'0 0.2
2017-Jul-14 11:29N 33°44' W 118°16'0 0.0
2017-Jul-14 10:59N 33°44' W 118°16'0 0.2
2017-Jul-14 10:25N 33°44' W 118°16'0 0.0
2017-Jul-14 09:58N 33°44' W 118°16'0 0.0
2017-Jul-14 09:28N 33°44' W 118°16'0 0.0
2017-Jul-14 09:01N 33°44' W 118°16'0 0.0
2017-Jul-14 08:28N 33°44' W 118°16'0 0.0
2017-Jul-14 08:00N 33°44' W 118°16'0 0.0
2017-Jul-14 07:28N 33°44' W 118°16'0 0.0
2017-Jul-14 06:57N 33°44' W 118°16'0 0.2
2017-Jul-14 06:26N 33°44' W 118°16'0 0.0
2017-Jul-14 05:59N 33°44' W 118°16'0 0.0
2017-Jul-14 05:29N 33°44' W 118°16'0 0.0
2017-Jul-14 04:56N 33°44' W 118°16'0 0.0
2017-Jul-14 04:29N 33°44' W 118°16'1 1.2
2017-Jul-14 04:01N 33°44' W 118°16'0 0.2
2017-Jul-14 02:44N 33°44' W 118°16'0 0.0
2017-Jul-14 02:29N 33°44' W 118°16'0 0.0
2017-Jul-14 01:56N 33°44' W 118°16'0 0.0
2017-Jul-14 01:26N 33°44' W 118°16'0 0.0
2017-Jul-14 00:59N 33°44' W 118°16'0 0.0
2017-Jul-14 00:29N 33°44' W 118°16'0 0.0
2017-Jul-13 23:59N 33°44' W 118°16'0 0.0
2017-Jul-13 23:29N 33°44' W 118°16'0 0.0
2017-Jul-13 22:59N 33°44' W 118°16'0 0.0
2017-Jul-13 22:29N 33°44' W 118°16'0 0.0
2017-Jul-13 21:47N 33°44' W 118°16'0 0.0
2017-Jul-13 20:04N 33°44' W 118°16'0 0.0
2017-Jul-13 16:34N 33°44' W 118°16'0 0.0
2017-Jul-13 16:28N 33°44' W 118°16'0 0.1
2017-Jul-13 15:46N 33°44' W 118°16'1 3.3
2017-Jul-13 15:30N 33°43' W 118°16'1 0.4
2017-Jul-13 14:06N 33°44' W 118°16'0 1.4
2017-Jul-13 14:00N 33°44' W 118°16'0 0.0
2017-Jul-13 13:30N 33°44' W 118°16'0 0.0
2017-Jul-13 12:36N 33°44' W 118°16'0 0.1
2017-Jul-13 12:30N 33°44' W 118°16'0 0.0
2017-Jul-13 11:18N 33°44' W 118°16'0 0.0
2017-Jul-13 10:54N 33°44' W 118°16'0 0.0
2017-Jul-13 10:30N 33°44' W 118°16'0 0.0
2017-Jul-13 10:00N 33°44' W 118°16'0 0.0
2017-Jul-13 09:30N 33°44' W 118°16'0 0.0
2017-Jul-13 09:00N 33°44' W 118°16'  
Track history (hours):
 
Tides and Currents Weather Stations Pressure Air Temp Water Temp Dewpoint Dewpoint Depression Visibility Wind Speed Wind Dir Waves Ship Positions

Eagle

Owner: Harley Marine Services, INC, SEATTLE, WA. More information available from US FCC via Universal Licensing System and Coast Guard Vessel Documentation Center.

Last reported at 2017-Jul-23 08:30 UTC. Time now 2017-Jul-23 08:38 UTC.
Position N 44°35' W 125°12'.

Length 32 m; draft 4.2 m.

Type: Towing. MMSI: 366978690.

Date/timePositionNaut miles runAvg speedWind from/ knotsBaromVisibWave heightAir tempDewpointWater temp
2017-Jul-23 08:30N 44°35' W 125°12'3 5.5
2017-Jul-23 08:00N 44°33' W 125°12'3 5.5
2017-Jul-23 07:30N 44°30' W 125°12'3 5.5
2017-Jul-23 07:00N 44°27' W 125°12'3 5.8
2017-Jul-23 06:30N 44°24' W 125°12'4 5.8
2017-Jul-23 05:51N 44°20' W 125°12'6 6.2
2017-Jul-23 04:52N 44°14' W 125°11'  
2017-Jul-20 19:28N 38°30' W 123°59'3 5.8
2017-Jul-20 19:00N 38°28' W 123°57'3 5.7
2017-Jul-20 18:30N 38°26' W 123°56'3 5.4
2017-Jul-20 18:00N 38°23' W 123°54'3 5.6
2017-Jul-20 17:30N 38°21' W 123°52'3 5.6
2017-Jul-20 17:00N 38°18' W 123°51'3 5.4
2017-Jul-20 16:30N 38°16' W 123°49'6 5.0
2017-Jul-20 15:21N 38°11' W 123°46'3 5.0
2017-Jul-20 14:50N 38°09' W 123°44'4 4.7
2017-Jul-20 14:00N 38°05' W 123°42'2 4.3
2017-Jul-20 13:30N 38°03' W 123°41'2 4.4
2017-Jul-20 13:00N 38°01' W 123°39'2 4.5
2017-Jul-20 12:30N 37°59' W 123°38'3 4.5
2017-Jul-20 11:53N 37°57' W 123°36'2 4.7
2017-Jul-20 11:25N 37°55' W 123°35'3 4.9
2017-Jul-20 10:48N 37°52' W 123°33'22 4.8
2017-Jul-20 06:05N 37°36' W 123°14'2 5.0
2017-Jul-20 05:45N 37°35' W 123°12'1 5.2
2017-Jul-20 05:29N 37°35' W 123°10'2 5.0
2017-Jul-20 05:00N 37°35' W 123°07'3 5.2
2017-Jul-20 04:30N 37°34' W 123°04'3 6.4
2017-Jul-20 04:00N 37°36' W 123°00'3 6.9
2017-Jul-20 03:30N 37°38' W 122°57'3 6.8
2017-Jul-20 03:00N 37°40' W 122°53'3 6.3
2017-Jul-20 02:30N 37°42' W 122°50'3 5.9
2017-Jul-20 02:00N 37°43' W 122°47'3 5.0
2017-Jul-20 01:22N 37°44' W 122°43'2 6.5
2017-Jul-20 01:00N 37°45' W 122°40'3 5.4
2017-Jul-20 00:30N 37°46' W 122°37'3 5.5
2017-Jul-20 00:00N 37°47' W 122°34'3 6.4
2017-Jul-19 23:30N 37°49' W 122°30'3 6.7
2017-Jul-19 23:00N 37°50' W 122°26'4 7.0
2017-Jul-19 22:31N 37°48' W 122°23'2 3.2
2017-Jul-19 22:00N 37°48' W 122°21'2 3.9
2017-Jul-19 21:30N 37°48' W 122°18'1 2.2
2017-Jul-19 21:00N 37°48' W 122°17'0 0.0
2017-Jul-19 20:28N 37°48' W 122°17'0 0.1
2017-Jul-19 19:58N 37°48' W 122°17'0 0.0
2017-Jul-19 19:28N 37°48' W 122°17'0 0.0
2017-Jul-19 18:59N 37°48' W 122°17'0 0.0
2017-Jul-19 18:28N 37°48' W 122°17'0 0.0
2017-Jul-19 17:58N 37°48' W 122°17'0 0.0
2017-Jul-19 17:28N 37°48' W 122°17'0 0.0
2017-Jul-19 16:58N 37°48' W 122°17'0 0.0
2017-Jul-19 16:28N 37°48' W 122°17'0 0.0
2017-Jul-19 15:58N 37°48' W 122°17'0 0.0
2017-Jul-19 15:28N 37°48' W 122°17'0 0.0
2017-Jul-19 14:58N 37°48' W 122°17'0 0.1
2017-Jul-19 14:28N 37°48' W 122°17'0 0.1
2017-Jul-19 13:58N 37°48' W 122°17'0 0.0
2017-Jul-19 13:28N 37°48' W 122°17'0 0.0
2017-Jul-19 12:58N 37°48' W 122°17'0 0.0
2017-Jul-19 12:28N 37°48' W 122°17'0 0.0
2017-Jul-19 11:58N 37°48' W 122°17'0 0.0
2017-Jul-19 11:28N 37°48' W 122°17'0 0.2
2017-Jul-19 10:58N 37°48' W 122°17'0 0.2
2017-Jul-19 10:28N 37°48' W 122°17'0 0.0
2017-Jul-19 09:58N 37°48' W 122°17'0 0.0
2017-Jul-19 09:28N 37°48' W 122°17'0 0.0
2017-Jul-19 08:58N 37°48' W 122°17'0 0.0
2017-Jul-19 08:28N 37°48' W 122°17'0 0.0
2017-Jul-19 07:58N 37°48' W 122°17'0 0.0
2017-Jul-19 07:28N 37°48' W 122°17'0 0.0
2017-Jul-19 06:58N 37°48' W 122°17'0 0.0
2017-Jul-19 06:28N 37°48' W 122°17'0 0.0
2017-Jul-19 05:58N 37°48' W 122°17'0 0.0
2017-Jul-19 05:25N 37°48' W 122°17'0 0.0
2017-Jul-19 04:58N 37°48' W 122°17'0 0.0
2017-Jul-19 04:28N 37°48' W 122°17'0 0.0
2017-Jul-19 03:58N 37°48' W 122°17'0 0.0
2017-Jul-19 03:25N 37°48' W 122°17'0 0.0
2017-Jul-19 02:58N 37°48' W 122°17'0 0.0
2017-Jul-19 02:30N 37°48' W 122°17'0 0.0
2017-Jul-19 02:00N 37°48' W 122°17'0 0.0
2017-Jul-19 01:30N 37°48' W 122°17'0 0.0
2017-Jul-19 01:01N 37°48' W 122°17'0 0.0
2017-Jul-19 00:31N 37°48' W 122°17'0 0.0
2017-Jul-19 00:00N 37°48' W 122°17'0 0.3
2017-Jul-18 23:30N 37°48' W 122°17'5 9.2
2017-Jul-18 23:00N 37°50' W 122°22'5 9.1
2017-Jul-18 22:31N 37°54' W 122°24'2 3.3
2017-Jul-18 22:01N 37°55' W 122°22'0 0.0
2017-Jul-18 21:30N 37°55' W 122°22'0 0.0
2017-Jul-18 21:00N 37°55' W 122°22'0 0.0
2017-Jul-18 20:30N 37°55' W 122°22'0 0.0
2017-Jul-18 20:01N 37°55' W 122°22'0 0.0
2017-Jul-18 19:30N 37°55' W 122°22'0 0.0
2017-Jul-18 19:01N 37°55' W 122°22'0 0.0
2017-Jul-18 18:30N 37°55' W 122°22'0 0.0
2017-Jul-18 18:00N 37°55' W 122°22'0 0.0
2017-Jul-18 17:30N 37°55' W 122°22'1 1.8
2017-Jul-18 17:01N 37°54' W 122°23'3 6.8
2017-Jul-18 16:31N 37°51' W 122°23'5 9.0
2017-Jul-18 16:01N 37°48' W 122°19'1 2.8
2017-Jul-18 15:31N 37°48' W 122°17'0 0.0
2017-Jul-18 15:01N 37°48' W 122°17'0 0.0
2017-Jul-18 14:00N 37°48' W 122°17'0 0.0
2017-Jul-18 13:31N 37°48' W 122°17'0 0.0
2017-Jul-18 13:01N 37°48' W 122°17'0 0.0
2017-Jul-18 12:30N 37°48' W 122°17'0 0.0
2017-Jul-18 12:01N 37°48' W 122°17'0 0.0
2017-Jul-18 11:30N 37°48' W 122°17'0 0.0
2017-Jul-18 11:01N 37°48' W 122°17'0 0.0
2017-Jul-18 10:30N 37°48' W 122°17'0 0.0
2017-Jul-18 10:00N 37°48' W 122°17'0 0.0
2017-Jul-18 09:30N 37°48' W 122°17'0 0.0
2017-Jul-18 09:01N 37°48' W 122°17'0 0.0
2017-Jul-18 08:31N 37°48' W 122°17'0 0.0
2017-Jul-18 08:00N 37°48' W 122°17'0 0.0
2017-Jul-18 07:30N 37°48' W 122°17'0 0.0
2017-Jul-18 07:00N 37°48' W 122°17'0 0.0
2017-Jul-18 06:31N 37°48' W 122°17'0 0.0
2017-Jul-18 06:01N 37°48' W 122°17'0 0.0
2017-Jul-18 05:30N 37°48' W 122°17'0 0.0
2017-Jul-18 05:00N 37°48' W 122°17'0 0.0
2017-Jul-18 04:31N 37°48' W 122°17'0 0.1
2017-Jul-18 04:01N 37°48' W 122°17'0 0.1
2017-Jul-18 03:30N 37°48' W 122°17'0 0.0
2017-Jul-18 03:01N 37°48' W 122°17'0 0.0
2017-Jul-18 02:31N 37°48' W 122°17'0 0.0
2017-Jul-18 02:00N 37°48' W 122°17'0 0.0
2017-Jul-18 01:30N 37°48' W 122°17'0 0.0
2017-Jul-18 01:00N 37°48' W 122°17'0 0.0
2017-Jul-18 00:30N 37°48' W 122°17'0 0.0
2017-Jul-18 00:01N 37°48' W 122°17'0 0.0
2017-Jul-17 23:31N 37°48' W 122°17'0 0.0
2017-Jul-17 23:01N 37°48' W 122°17'0 0.4
2017-Jul-17 22:30N 37°48' W 122°17'0 0.4
2017-Jul-17 22:01N 37°48' W 122°17'0 0.1
2017-Jul-17 21:31N 37°48' W 122°17'0 0.0
2017-Jul-17 21:00N 37°48' W 122°17'0 0.0
2017-Jul-17 20:30N 37°48' W 122°17'0 0.0
2017-Jul-17 20:00N 37°48' W 122°17'0 0.0
2017-Jul-17 19:30N 37°48' W 122°17'0 0.0
2017-Jul-17 19:00N 37°48' W 122°17'0 0.0
2017-Jul-17 18:31N 37°48' W 122°17'0 0.0
2017-Jul-17 18:00N 37°48' W 122°17'0 0.0
2017-Jul-17 17:31N 37°48' W 122°17'0 0.0
2017-Jul-17 17:01N 37°48' W 122°17'0 0.0
2017-Jul-17 16:30N 37°48' W 122°17'0 0.0
2017-Jul-17 16:01N 37°48' W 122°17'0 0.0
2017-Jul-17 15:31N 37°48' W 122°17'0 0.0
2017-Jul-17 15:01N 37°48' W 122°17'0 0.1
2017-Jul-17 14:30N 37°48' W 122°17'0 0.0
2017-Jul-17 14:00N 37°48' W 122°17'0 0.0
2017-Jul-17 13:30N 37°48' W 122°17'0 0.0
2017-Jul-17 13:01N 37°48' W 122°17'0 0.0
2017-Jul-17 12:30N 37°48' W 122°17'0 0.0
2017-Jul-17 12:01N 37°48' W 122°17'0 0.0
2017-Jul-17 11:31N 37°48' W 122°17'0 0.0
2017-Jul-17 11:00N 37°48' W 122°17'0 0.0
2017-Jul-17 10:30N 37°48' W 122°17'0 0.0
2017-Jul-17 10:00N 37°48' W 122°17'0 0.0
2017-Jul-17 09:31N 37°48' W 122°17'0 0.0
2017-Jul-17 09:00N 37°48' W 122°17'0 0.0
2017-Jul-17 08:30N 37°48' W 122°17'0 0.0
2017-Jul-17 08:01N 37°48' W 122°17'0 0.0
2017-Jul-17 07:30N 37°48' W 122°17'0 0.0
2017-Jul-17 07:01N 37°48' W 122°17'0 0.0
2017-Jul-17 06:30N 37°48' W 122°17'0 0.0
2017-Jul-17 06:01N 37°48' W 122°17'0 0.0
2017-Jul-17 05:30N 37°48' W 122°17'0 0.2
2017-Jul-17 05:01N 37°48' W 122°17'3 5.4
2017-Jul-17 04:31N 37°48' W 122°21'1 2.3
2017-Jul-17 04:00N 37°47' W 122°22'2 4.3
2017-Jul-17 03:30N 37°49' W 122°24'3 6.7
2017-Jul-17 03:01N 37°49' W 122°28'4 7.5
2017-Jul-17 02:31N 37°48' W 122°32'4 7.7
2017-Jul-17 02:00N 37°46' W 122°36'4 8.0
2017-Jul-17 01:30N 37°44' W 122°41'4 7.7
2017-Jul-17 01:00N 37°42' W 122°45'4 7.6
2017-Jul-17 00:30N 37°39' W 122°49'3 5.7
2017-Jul-17 00:01N 37°38' W 122°52'4 7.3
2017-Jul-16 23:30N 37°36' W 122°55'4 7.3
2017-Jul-16 23:01N 37°34' W 122°59'3 6.4
2017-Jul-16 22:30N 37°31' W 123°02'3 5.1
2017-Jul-16 22:00N 37°29' W 123°02'2 4.9
2017-Jul-16 21:31N 37°26' W 123°03'3 5.0
2017-Jul-16 21:01N 37°24' W 123°03'3 5.1
2017-Jul-16 20:31N 37°21' W 123°01'3 5.4
2017-Jul-16 20:00N 37°19' W 123°00'3 5.1
2017-Jul-16 19:30N 37°17' W 122°59'3 5.3
2017-Jul-16 19:00N 37°14' W 122°57'3 5.6
2017-Jul-16 18:30N 37°12' W 122°56'3 5.7
2017-Jul-16 18:00N 37°09' W 122°55'3 5.7
2017-Jul-16 17:30N 37°06' W 122°53'3 5.8
2017-Jul-16 17:00N 37°04' W 122°52'3 5.8
2017-Jul-16 16:30N 37°01' W 122°50'3 5.8
2017-Jul-16 16:00N 36°59' W 122°48'3 5.9
2017-Jul-16 15:30N 36°56' W 122°47'3 5.7
2017-Jul-16 15:00N 36°53' W 122°45'3 5.6
2017-Jul-16 14:30N 36°51' W 122°44'3 5.3
2017-Jul-16 14:00N 36°49' W 122°42'3 5.3
2017-Jul-16 13:30N 36°46' W 122°41'3 5.4
2017-Jul-16 13:00N 36°44' W 122°40'3 5.4
2017-Jul-16 12:30N 36°41' W 122°39'3 5.5
2017-Jul-16 12:00N 36°39' W 122°37'3 5.2
2017-Jul-16 11:30N 36°36' W 122°36'3 5.8
2017-Jul-16 10:59N 36°33' W 122°34'3 6.1
2017-Jul-16 10:30N 36°31' W 122°33'3 5.9
2017-Jul-16 10:00N 36°28' W 122°31'3 6.2
2017-Jul-16 09:30N 36°25' W 122°29'3 5.5
2017-Jul-16 09:00N 36°23' W 122°28'3 6.2
2017-Jul-16 08:30N 36°20' W 122°26'3 6.1
2017-Jul-16 08:00N 36°18' W 122°24'3 6.0
2017-Jul-16 07:30N 36°15' W 122°22'3 5.9
2017-Jul-16 07:00N 36°12' W 122°20'3 5.6
2017-Jul-16 06:30N 36°10' W 122°19'3 5.4
2017-Jul-16 06:00N 36°08' W 122°17'3 5.3
2017-Jul-16 05:30N 36°06' W 122°14'3 5.3
2017-Jul-16 05:00N 36°04' W 122°12'3 5.3
2017-Jul-16 04:30N 36°02' W 122°10'3 5.6
2017-Jul-16 04:00N 35°59' W 122°09'3 5.5
2017-Jul-16 03:30N 35°57' W 122°07'3 5.2
2017-Jul-16 03:00N 35°55' W 122°05'3 5.2
2017-Jul-16 02:29N 35°52' W 122°03'3 5.3
2017-Jul-16 02:00N 35°50' W 122°01'3 5.2
2017-Jul-16 01:30N 35°48' W 121°60'3 5.1
2017-Jul-16 01:00N 35°46' W 121°58'2 4.8
2017-Jul-16 00:30N 35°44' W 121°56'2 4.6
2017-Jul-16 00:00N 35°42' W 121°55'2 4.4
2017-Jul-15 23:30N 35°40' W 121°54'2 4.2
2017-Jul-15 23:00N 35°38' W 121°52'2 4.8
2017-Jul-15 22:30N 35°36' W 121°51'3 5.3
2017-Jul-15 22:00N 35°34' W 121°49'3 5.8
2017-Jul-15 21:30N 35°32' W 121°46'3 5.8
2017-Jul-15 21:01N 35°30' W 121°44'3 6.1
2017-Jul-15 20:31N 35°27' W 121°42'3 6.1
2017-Jul-15 20:00N 35°25' W 121°40'3 6.1
2017-Jul-15 19:31N 35°22' W 121°37'3 5.9
2017-Jul-15 19:00N 35°20' W 121°35'3 6.0
2017-Jul-15 18:30N 35°17' W 121°33'3 6.0
2017-Jul-15 18:01N 35°15' W 121°31'3 6.2
2017-Jul-15 17:30N 35°12' W 121°29'4 6.4
2017-Jul-15 16:57N 35°09' W 121°27'3 6.2
2017-Jul-15 16:31N 35°07' W 121°25'3 6.1
2017-Jul-15 16:00N 35°05' W 121°23'3 6.0
2017-Jul-15 15:31N 35°02' W 121°21'3 6.0
2017-Jul-15 15:00N 34°60' W 121°18'6 6.0
2017-Jul-15 14:00N 34°55' W 121°14'3 6.2
2017-Jul-15 13:30N 34°52' W 121°12'3 6.0
2017-Jul-15 13:01N 34°50' W 121°10'3 6.4
2017-Jul-15 12:30N 34°48' W 121°07'3 6.5
2017-Jul-15 12:00N 34°45' W 121°05'3 6.5
2017-Jul-15 11:31N 34°42' W 121°03'3 6.6
2017-Jul-15 11:00N 34°39' W 121°01'3 6.9
2017-Jul-15 10:31N 34°36' W 120°59'4 7.2
2017-Jul-15 10:01N 34°33' W 120°57'4 7.2
2017-Jul-15 09:26N 34°30' W 120°54'3 7.2
2017-Jul-15 09:00N 34°27' W 120°52'3 6.5
2017-Jul-15 08:30N 34°25' W 120°48'4 6.7
2017-Jul-15 07:56N 34°25' W 120°44'3 6.3
2017-Jul-15 07:29N 34°24' W 120°41'3 5.6
2017-Jul-15 06:58N 34°23' W 120°37'2 5.4
2017-Jul-15 06:31N 34°23' W 120°34'3 5.5
2017-Jul-15 06:01N 34°22' W 120°31'3 5.7
2017-Jul-15 05:30N 34°21' W 120°28'3 6.0
2017-Jul-15 05:00N 34°20' W 120°24'3 5.7
2017-Jul-15 04:30N 34°20' W 120°21'3 5.4
2017-Jul-15 04:00N 34°19' W 120°18'3 5.5
2017-Jul-15 03:31N 34°18' W 120°15'3 5.6
2017-Jul-15 03:00N 34°17' W 120°12'3 5.8
2017-Jul-15 02:30N 34°17' W 120°08'3 6.1
2017-Jul-15 02:00N 34°16' W 120°05'3 6.0
2017-Jul-15 01:29N 34°15' W 120°01'3 6.4
2017-Jul-15 01:01N 34°14' W 119°57'3 6.6
2017-Jul-15 00:31N 34°13' W 119°54'3 6.9
2017-Jul-15 00:00N 34°12' W 119°50'4 7.1
2017-Jul-14 23:29N 34°11' W 119°45'3 7.2
2017-Jul-14 23:01N 34°10' W 119°41'4 7.1
2017-Jul-14 22:31N 34°09' W 119°37'4 7.4
2017-Jul-14 21:59N 34°08' W 119°33'4 7.5
2017-Jul-14 21:30N 34°08' W 119°28'4 7.7
2017-Jul-14 21:01N 34°07' W 119°24'4 7.8
2017-Jul-14 20:31N 34°05' W 119°19'4 8.0
2017-Jul-14 20:01N 34°04' W 119°15'4 7.9
2017-Jul-14 19:31N 34°02' W 119°11'4 7.9
2017-Jul-14 19:01N 34°00' W 119°06'4 7.8
2017-Jul-14 18:30N 33°59' W 119°02'4 7.8
2017-Jul-14 18:00N 33°57' W 118°58'4 8.0
2017-Jul-14 17:30N 33°55' W 118°54'4 8.2
2017-Jul-14 17:01N 33°53' W 118°50'4 8.3
2017-Jul-14 16:31N 33°51' W 118°45'4 8.4
2017-Jul-14 16:00N 33°48' W 118°41'4 8.2
2017-Jul-14 15:31N 33°46' W 118°37'4 8.2
2017-Jul-14 15:00N 33°44' W 118°33'4 8.1
2017-Jul-14 14:30N 33°42' W 118°28'4 7.2
2017-Jul-14 14:00N 33°40' W 118°25'4 7.9
2017-Jul-14 13:30N 33°39' W 118°20'4 7.5
2017-Jul-14 13:00N 33°39' W 118°16'3 6.4
2017-Jul-14 12:30N 33°42' W 118°15'1 2.8
2017-Jul-14 11:59N 33°44' W 118°16'0 0.2
2017-Jul-14 11:29N 33°44' W 118°16'0 0.0
2017-Jul-14 10:59N 33°44' W 118°16'0 0.2
2017-Jul-14 10:25N 33°44' W 118°16'0 0.0
2017-Jul-14 09:58N 33°44' W 118°16'0 0.0
2017-Jul-14 09:28N 33°44' W 118°16'0 0.0
2017-Jul-14 09:01N 33°44' W 118°16'0 0.0
2017-Jul-14 08:28N 33°44' W 118°16'0 0.0
2017-Jul-14 08:00N 33°44' W 118°16'0 0.0
2017-Jul-14 07:28N 33°44' W 118°16'0 0.0
2017-Jul-14 06:57N 33°44' W 118°16'0 0.2
2017-Jul-14 06:26N 33°44' W 118°16'0 0.0
2017-Jul-14 05:59N 33°44' W 118°16'0 0.0
2017-Jul-14 05:29N 33°44' W 118°16'0 0.0
2017-Jul-14 04:56N 33°44' W 118°16'0 0.0
2017-Jul-14 04:29N 33°44' W 118°16'1 1.2
2017-Jul-14 04:01N 33°44' W 118°16'0 0.2
2017-Jul-14 02:44N 33°44' W 118°16'0 0.0
2017-Jul-14 02:29N 33°44' W 118°16'0 0.0
2017-Jul-14 01:56N 33°44' W 118°16'0 0.0
2017-Jul-14 01:26N 33°44' W 118°16'0 0.0
2017-Jul-14 00:59N 33°44' W 118°16'0 0.0
2017-Jul-14 00:29N 33°44' W 118°16'0 0.0
2017-Jul-13 23:59N 33°44' W 118°16'0 0.0
2017-Jul-13 23:29N 33°44' W 118°16'0 0.0
2017-Jul-13 22:59N 33°44' W 118°16'0 0.0
2017-Jul-13 22:29N 33°44' W 118°16'0 0.0
2017-Jul-13 21:47N 33°44' W 118°16'0 0.0
2017-Jul-13 20:04N 33°44' W 118°16'0 0.0
2017-Jul-13 16:34N 33°44' W 118°16'0 0.0
2017-Jul-13 16:28N 33°44' W 118°16'0 0.1
2017-Jul-13 15:46N 33°44' W 118°16'1 3.3
2017-Jul-13 15:30N 33°43' W 118°16'1 0.4
2017-Jul-13 14:06N 33°44' W 118°16'0 1.4
2017-Jul-13 14:00N 33°44' W 118°16'0 0.0
2017-Jul-13 13:30N 33°44' W 118°16'0 0.0
2017-Jul-13 12:36N 33°44' W 118°16'0 0.1
2017-Jul-13 12:30N 33°44' W 118°16'0 0.0
2017-Jul-13 11:18N 33°44' W 118°16'0 0.0
2017-Jul-13 10:54N 33°44' W 118°16'0 0.0
2017-Jul-13 10:30N 33°44' W 118°16'0 0.0
2017-Jul-13 10:00N 33°44' W 118°16'0 0.0
2017-Jul-13 09:30N 33°44' W 118°16'0 0.0
2017-Jul-13 09:00N 33°44' W 118°16'  

Dump ship's entire track history